Etusivu
METAR-TAF:

METAR-TAF

Lentoasemat :

Ivalon lentoasema

Ivalo, Suomi

Leveyspiiri: 68-37N, Pituuspiiri: 027-25E, korkeus merenpinnasta: 147 m

Tämänhetkinen sää

Tämä raportti tehtiin 11 minuuttia sitten, kello 21.20 UTC
Tuuli 1 kn eri suunnista
Lämpötila 4°C
Kosteus 81%
Ilmanpaine 1026 hPa
Näkyvyys 10 km tai enemmän
Hajonneita pilviä 3300 ft:n korkeudessa

METAR: EFIV 242120Z AUTO VRB01KT 9999 BKN033 04/01 Q1026

Aika: 00:31 (21:31 UTC)

Sääennuste

Tämä raportti tehtiin 10 tuntia ja 1 minuuttia sitten, kello 11.30 UTC
Ennuste voimassa 24. päivästä klo 12 UTC - 24. päivään klo 16 UTC
Tuuli 5 kn pohjoisesta/koillisesta
Näkyvyys 10 km tai enemmän
Hajonneita pilviä 3500 ft:n korkeudessa

TAF: EFIV 241130Z 2412/2416 03005KT 9999 BKN035

Säähavainnot ja -ennusteet yli 4000 lentoasemalta (METAR- ja TAF-raportit).

Käytössä olevat sääasemat on merkitty karttaan keltaisilla ja punaisilla pisteillä.

Aseta hiiri pisteen päälle nähdäksesi sääaseman nimen.

Klikkaa sitten nähdäksesi säähavainnot ja -ennusteet.

Kartan vaihtaminen: klikkaa mustalla rastilla varustettuja vihreitä pisteitä, niin voit zoomata sisään; viivalla varustettua vihreää pistettä, niin voit zoomata ulos tai vihreitä nuolia, niin pääset viereisille kartoille.


METAR-TAF: